sensor_id;sensor_type;location;lat;lon;timestamp;P1;durP1;ratioP1;P2;durP2;ratioP2
55134;SDS011;41031;44.750;11.308;2022-09-09T00:00:47;13.40;;;5.57;;
55134;SDS011;41031;44.750;11.308;2022-09-09T00:03:43;9.47;;;5.67;;
55134;SDS011;41031;44.750;11.308;2022-09-09T00:06:32;11.57;;;5.77;;
55134;SDS011;41031;44.750;11.308;2022-09-09T00:11:46;6.63;;;5.30;;
55134;SDS011;41031;44.750;11.308;2022-09-09T00:23:47;6.13;;;5.20;;
55134;SDS011;41031;44.750;11.308;2022-09-09T00:26:28;8.50;;;4.87;;
55134;SDS011;41031;44.750;11.308;2022-09-09T00:29:02;7.50;;;5.10;;
55134;SDS011;41031;44.750;11.308;2022-09-09T00:31:34;6.60;;;4.80;;
55134;SDS011;41031;44.750;11.308;2022-09-09T00:36:43;9.10;;;5.63;;
55134;SDS011;41031;44.750;11.308;2022-09-09T00:39:13;6.80;;;4.97;;
55134;SDS011;41031;44.750;11.308;2022-09-09T00:42:18;9.77;;;5.97;;
55134;SDS011;41031;44.750;11.308;2022-09-09T00:47:54;5.77;;;5.20;;
55134;SDS011;41031;44.750;11.308;2022-09-09T00:55:51;7.63;;;5.63;;
55134;SDS011;41031;44.750;11.308;2022-09-09T00:58:21;8.67;;;5.30;;
55134;SDS011;41031;44.750;11.308;2022-09-09T01:06:19;9.73;;;5.50;;
55134;SDS011;41031;44.750;11.308;2022-09-09T01:12:07;6.20;;;4.90;;
55134;SDS011;41031;44.750;11.308;2022-09-09T01:14:49;9.17;;;5.33;;
55134;SDS011;41031;44.750;11.308;2022-09-09T01:17:21;7.20;;;4.87;;
55134;SDS011;41031;44.750;11.308;2022-09-09T01:22:53;10.47;;;5.37;;
55134;SDS011;41031;44.750;11.308;2022-09-09T01:28:31;6.97;;;4.43;;
55134;SDS011;41031;44.750;11.308;2022-09-09T01:31:07;6.67;;;5.23;;
55134;SDS011;41031;44.750;11.308;2022-09-09T01:33:42;8.30;;;4.87;;
55134;SDS011;41031;44.750;11.308;2022-09-09T01:39:01;8.60;;;5.33;;
55134;SDS011;41031;44.750;11.308;2022-09-09T01:41:28;8.67;;;5.23;;
55134;SDS011;41031;44.750;11.308;2022-09-09T01:44:01;9.20;;;5.20;;
55134;SDS011;41031;44.750;11.308;2022-09-09T01:46:31;11.43;;;5.17;;
55134;SDS011;41031;44.750;11.308;2022-09-09T01:48:59;7.57;;;4.80;;
55134;SDS011;41031;44.750;11.308;2022-09-09T01:51:28;6.27;;;5.10;;
55134;SDS011;41031;44.750;11.308;2022-09-09T01:53:58;7.40;;;4.93;;
55134;SDS011;41031;44.750;11.308;2022-09-09T02:04:08;7.63;;;5.00;;
55134;SDS011;41031;44.750;11.308;2022-09-09T02:10:42;12.17;;;5.50;;
55134;SDS011;41031;44.750;11.308;2022-09-09T02:13:21;9.77;;;6.77;;
55134;SDS011;41031;44.750;11.308;2022-09-09T02:15:57;11.63;;;5.83;;
55134;SDS011;41031;44.750;11.308;2022-09-09T02:18:34;8.23;;;6.63;;
55134;SDS011;41031;44.750;11.308;2022-09-09T02:21:17;11.23;;;7.03;;
55134;SDS011;41031;44.750;11.308;2022-09-09T02:23:46;13.60;;;7.00;;
55134;SDS011;41031;44.750;11.308;2022-09-09T02:26:15;11.60;;;6.13;;
55134;SDS011;41031;44.750;11.308;2022-09-09T02:28:50;11.27;;;6.73;;
55134;SDS011;41031;44.750;11.308;2022-09-09T02:31:20;15.47;;;7.67;;
55134;SDS011;41031;44.750;11.308;2022-09-09T02:33:57;16.93;;;7.63;;
55134;SDS011;41031;44.750;11.308;2022-09-09T02:36:28;8.37;;;7.20;;
55134;SDS011;41031;44.750;11.308;2022-09-09T02:38:59;16.93;;;8.00;;
55134;SDS011;41031;44.750;11.308;2022-09-09T02:41:34;11.27;;;7.13;;
55134;SDS011;41031;44.750;11.308;2022-09-09T02:44:14;9.13;;;7.30;;
55134;SDS011;41031;44.750;11.308;2022-09-09T02:52:21;10.50;;;7.93;;
55134;SDS011;41031;44.750;11.308;2022-09-09T02:54:57;19.73;;;9.17;;
55134;SDS011;41031;44.750;11.308;2022-09-09T02:57:31;13.50;;;7.73;;
55134;SDS011;41031;44.750;11.308;2022-09-09T03:00:00;12.57;;;7.80;;
55134;SDS011;41031;44.750;11.308;2022-09-09T03:02:30;14.30;;;8.50;;
55134;SDS011;41031;44.750;11.308;2022-09-09T03:05:02;12.17;;;7.40;;
55134;SDS011;41031;44.750;11.308;2022-09-09T03:07:30;12.63;;;7.33;;
55134;SDS011;41031;44.750;11.308;2022-09-09T03:09:57;8.90;;;7.27;;
55134;SDS011;41031;44.750;11.308;2022-09-09T03:12:26;11.83;;;8.57;;
55134;SDS011;41031;44.750;11.308;2022-09-09T03:14:53;9.83;;;7.57;;
55134;SDS011;41031;44.750;11.308;2022-09-09T03:17:20;13.50;;;8.73;;
55134;SDS011;41031;44.750;11.308;2022-09-09T03:19:51;10.67;;;7.87;;
55134;SDS011;41031;44.750;11.308;2022-09-09T03:22:21;14.97;;;8.90;;
55134;SDS011;41031;44.750;11.308;2022-09-09T03:24:48;13.13;;;8.27;;
55134;SDS011;41031;44.750;11.308;2022-09-09T03:27:16;10.93;;;7.73;;
55134;SDS011;41031;44.750;11.308;2022-09-09T03:29:44;13.07;;;8.00;;
55134;SDS011;41031;44.750;11.308;2022-09-09T03:32:17;13.17;;;9.13;;
55134;SDS011;41031;44.750;11.308;2022-09-09T03:34:44;14.27;;;8.93;;
55134;SDS011;41031;44.750;11.308;2022-09-09T03:37:14;10.13;;;8.07;;
55134;SDS011;41031;44.750;11.308;2022-09-09T03:39:41;13.33;;;8.33;;
55134;SDS011;41031;44.750;11.308;2022-09-09T03:42:13;12.83;;;8.00;;
55134;SDS011;41031;44.750;11.308;2022-09-09T03:44:41;10.83;;;9.17;;
55134;SDS011;41031;44.750;11.308;2022-09-09T03:47:08;15.83;;;9.30;;
55134;SDS011;41031;44.750;11.308;2022-09-09T03:49:36;9.07;;;7.13;;
55134;SDS011;41031;44.750;11.308;2022-09-09T03:52:03;11.47;;;8.03;;
55134;SDS011;41031;44.750;11.308;2022-09-09T03:54:31;11.87;;;9.00;;
55134;SDS011;41031;44.750;11.308;2022-09-09T03:56:58;7.77;;;7.00;;
55134;SDS011;41031;44.750;11.308;2022-09-09T03:59:25;9.83;;;7.97;;
55134;SDS011;41031;44.750;11.308;2022-09-09T04:01:52;12.47;;;9.80;;
55134;SDS011;41031;44.750;11.308;2022-09-09T04:04:21;12.10;;;10.33;;
55134;SDS011;41031;44.750;11.308;2022-09-09T04:06:48;9.80;;;8.70;;
55134;SDS011;41031;44.750;11.308;2022-09-09T04:09:17;14.40;;;9.17;;
55134;SDS011;41031;44.750;11.308;2022-09-09T04:11:44;11.90;;;10.63;;
55134;SDS011;41031;44.750;11.308;2022-09-09T04:14:13;14.30;;;10.73;;
55134;SDS011;41031;44.750;11.308;2022-09-09T04:16:40;10.23;;;8.20;;
55134;SDS011;41031;44.750;11.308;2022-09-09T04:19:10;22.80;;;7.13;;
55134;SDS011;41031;44.750;11.308;2022-09-09T04:21:41;33.03;;;6.67;;
55134;SDS011;41031;44.750;11.308;2022-09-09T04:24:08;9.53;;;7.77;;
55134;SDS011;41031;44.750;11.308;2022-09-09T04:26:36;9.10;;;8.27;;
55134;SDS011;41031;44.750;11.308;2022-09-09T04:29:03;10.87;;;8.40;;
55134;SDS011;41031;44.750;11.308;2022-09-09T04:31:31;12.23;;;9.20;;
55134;SDS011;41031;44.750;11.308;2022-09-09T04:33:59;9.80;;;8.80;;
55134;SDS011;41031;44.750;11.308;2022-09-09T04:36:32;13.23;;;9.77;;
55134;SDS011;41031;44.750;11.308;2022-09-09T04:39:02;14.10;;;10.70;;
55134;SDS011;41031;44.750;11.308;2022-09-09T04:41:29;12.40;;;9.93;;
55134;SDS011;41031;44.750;11.308;2022-09-09T04:43:58;22.10;;;11.40;;
55134;SDS011;41031;44.750;11.308;2022-09-09T04:46:27;19.73;;;13.63;;
55134;SDS011;41031;44.750;11.308;2022-09-09T04:48:56;22.33;;;11.53;;
55134;SDS011;41031;44.750;11.308;2022-09-09T04:51:27;17.80;;;11.87;;
55134;SDS011;41031;44.750;11.308;2022-09-09T04:53:54;14.17;;;11.53;;
55134;SDS011;41031;44.750;11.308;2022-09-09T04:56:22;15.37;;;11.83;;
55134;SDS011;41031;44.750;11.308;2022-09-09T04:58:51;15.63;;;12.33;;
55134;SDS011;41031;44.750;11.308;2022-09-09T05:01:22;21.67;;;12.07;;
55134;SDS011;41031;44.750;11.308;2022-09-09T05:03:52;22.53;;;12.33;;
55134;SDS011;41031;44.750;11.308;2022-09-09T05:06:21;19.17;;;12.83;;
55134;SDS011;41031;44.750;11.308;2022-09-09T05:08:55;20.90;;;15.30;;
55134;SDS011;41031;44.750;11.308;2022-09-09T05:11:28;22.57;;;15.37;;
55134;SDS011;41031;44.750;11.308;2022-09-09T05:14:06;24.13;;;13.90;;
55134;SDS011;41031;44.750;11.308;2022-09-09T05:16:34;20.03;;;14.57;;
55134;SDS011;41031;44.750;11.308;2022-09-09T05:19:01;24.33;;;15.67;;
55134;SDS011;41031;44.750;11.308;2022-09-09T05:21:40;27.63;;;15.17;;
55134;SDS011;41031;44.750;11.308;2022-09-09T05:24:08;31.13;;;16.97;;
55134;SDS011;41031;44.750;11.308;2022-09-09T05:26:35;39.10;;;16.80;;
55134;SDS011;41031;44.750;11.308;2022-09-09T05:29:02;29.20;;;16.90;;
55134;SDS011;41031;44.750;11.308;2022-09-09T05:31:30;46.67;;;17.67;;
55134;SDS011;41031;44.750;11.308;2022-09-09T05:34:01;37.80;;;17.67;;
55134;SDS011;41031;44.750;11.308;2022-09-09T05:36:28;41.67;;;19.63;;
55134;SDS011;41031;44.750;11.308;2022-09-09T05:38:56;41.50;;;19.90;;
55134;SDS011;41031;44.750;11.308;2022-09-09T05:41:25;46.67;;;19.43;;
55134;SDS011;41031;44.750;11.308;2022-09-09T05:43:55;50.73;;;19.90;;
55134;SDS011;41031;44.750;11.308;2022-09-09T05:46:23;40.83;;;19.47;;
55134;SDS011;41031;44.750;11.308;2022-09-09T05:48:53;35.50;;;20.03;;
55134;SDS011;41031;44.750;11.308;2022-09-09T05:51:28;46.63;;;17.70;;
55134;SDS011;41031;44.750;11.308;2022-09-09T05:54:03;37.07;;;18.23;;
55134;SDS011;41031;44.750;11.308;2022-09-09T05:56:33;39.43;;;19.23;;
55134;SDS011;41031;44.750;11.308;2022-09-09T05:59:01;42.53;;;18.73;;
55134;SDS011;41031;44.750;11.308;2022-09-09T06:01:29;28.73;;;19.47;;
55134;SDS011;41031;44.750;11.308;2022-09-09T06:03:59;43.77;;;20.13;;
55134;SDS011;41031;44.750;11.308;2022-09-09T06:06:30;33.17;;;20.00;;
55134;SDS011;41031;44.750;11.308;2022-09-09T06:08:59;35.60;;;20.13;;
55134;SDS011;41031;44.750;11.308;2022-09-09T06:11:33;38.70;;;20.67;;
55134;SDS011;41031;44.750;11.308;2022-09-09T06:14:00;37.83;;;20.43;;
55134;SDS011;41031;44.750;11.308;2022-09-09T06:16:29;43.07;;;20.93;;
55134;SDS011;41031;44.750;11.308;2022-09-09T06:18:59;63.10;;;19.30;;
55134;SDS011;41031;44.750;11.308;2022-09-09T06:21:35;34.13;;;17.03;;
55134;SDS011;41031;44.750;11.308;2022-09-09T06:24:06;54.87;;;17.63;;
55134;SDS011;41031;44.750;11.308;2022-09-09T06:26:38;39.13;;;16.37;;
55134;SDS011;41031;44.750;11.308;2022-09-09T06:29:12;39.93;;;17.20;;
55134;SDS011;41031;44.750;11.308;2022-09-09T06:31:41;33.73;;;15.23;;
55134;SDS011;41031;44.750;11.308;2022-09-09T06:34:19;42.27;;;13.67;;
55134;SDS011;41031;44.750;11.308;2022-09-09T06:36:49;28.20;;;15.30;;
55134;SDS011;41031;44.750;11.308;2022-09-09T06:39:17;27.70;;;16.40;;
55134;SDS011;41031;44.750;11.308;2022-09-09T06:41:45;33.83;;;17.27;;
55134;SDS011;41031;44.750;11.308;2022-09-09T06:44:38;26.93;;;14.60;;
55134;SDS011;41031;44.750;11.308;2022-09-09T06:47:08;22.67;;;14.27;;
55134;SDS011;41031;44.750;11.308;2022-09-09T06:49:38;36.80;;;16.97;;
55134;SDS011;41031;44.750;11.308;2022-09-09T06:52:08;26.13;;;14.93;;
55134;SDS011;41031;44.750;11.308;2022-09-09T06:54:36;24.87;;;15.13;;
55134;SDS011;41031;44.750;11.308;2022-09-09T06:57:04;32.27;;;15.43;;
55134;SDS011;41031;44.750;11.308;2022-09-09T06:59:55;35.47;;;16.67;;
55134;SDS011;41031;44.750;11.308;2022-09-09T07:02:22;33.87;;;17.03;;
55134;SDS011;41031;44.750;11.308;2022-09-09T07:04:50;27.37;;;15.53;;
55134;SDS011;41031;44.750;11.308;2022-09-09T07:07:18;31.93;;;16.20;;
55134;SDS011;41031;44.750;11.308;2022-09-09T07:09:46;25.13;;;15.47;;
55134;SDS011;41031;44.750;11.308;2022-09-09T07:12:13;22.40;;;14.97;;
55134;SDS011;41031;44.750;11.308;2022-09-09T07:14:48;20.90;;;15.17;;
55134;SDS011;41031;44.750;11.308;2022-09-09T07:17:15;20.13;;;14.83;;
55134;SDS011;41031;44.750;11.308;2022-09-09T07:19:42;22.73;;;16.73;;
55134;SDS011;41031;44.750;11.308;2022-09-09T07:22:10;20.97;;;15.83;;
55134;SDS011;41031;44.750;11.308;2022-09-09T07:24:37;23.27;;;17.13;;
55134;SDS011;41031;44.750;11.308;2022-09-09T07:27:05;22.03;;;15.30;;
55134;SDS011;41031;44.750;11.308;2022-09-09T07:29:34;24.37;;;15.83;;
55134;SDS011;41031;44.750;11.308;2022-09-09T07:32:01;20.23;;;15.10;;
55134;SDS011;41031;44.750;11.308;2022-09-09T07:34:34;24.27;;;16.30;;
55134;SDS011;41031;44.750;11.308;2022-09-09T07:37:01;20.70;;;15.27;;
55134;SDS011;41031;44.750;11.308;2022-09-09T07:39:29;20.83;;;15.13;;
55134;SDS011;41031;44.750;11.308;2022-09-09T07:41:57;24.70;;;15.83;;
55134;SDS011;41031;44.750;11.308;2022-09-09T07:44:25;21.80;;;15.40;;
55134;SDS011;41031;44.750;11.308;2022-09-09T07:47:03;22.40;;;14.70;;
55134;SDS011;41031;44.750;11.308;2022-09-09T07:49:35;21.97;;;15.97;;
55134;SDS011;41031;44.750;11.308;2022-09-09T07:52:04;24.13;;;15.57;;
55134;SDS011;41031;44.750;11.308;2022-09-09T07:54:32;16.87;;;13.80;;
55134;SDS011;41031;44.750;11.308;2022-09-09T07:57:02;19.80;;;14.87;;
55134;SDS011;41031;44.750;11.308;2022-09-09T07:59:33;22.50;;;15.43;;
55134;SDS011;41031;44.750;11.308;2022-09-09T08:02:00;17.13;;;14.73;;
55134;SDS011;41031;44.750;11.308;2022-09-09T08:04:30;20.30;;;15.73;;
55134;SDS011;41031;44.750;11.308;2022-09-09T08:06:58;19.20;;;14.80;;
55134;SDS011;41031;44.750;11.308;2022-09-09T08:09:29;19.80;;;15.17;;
55134;SDS011;41031;44.750;11.308;2022-09-09T08:12:14;18.83;;;13.87;;
55134;SDS011;41031;44.750;11.308;2022-09-09T08:14:43;23.47;;;16.13;;
55134;SDS011;41031;44.750;11.308;2022-09-09T08:17:10;24.27;;;16.37;;
55134;SDS011;41031;44.750;11.308;2022-09-09T08:19:37;21.73;;;14.80;;
55134;SDS011;41031;44.750;11.308;2022-09-09T08:22:10;20.27;;;15.20;;
55134;SDS011;41031;44.750;11.308;2022-09-09T08:24:38;14.87;;;12.83;;
55134;SDS011;41031;44.750;11.308;2022-09-09T08:27:06;21.90;;;12.70;;
55134;SDS011;41031;44.750;11.308;2022-09-09T08:29:33;16.13;;;12.77;;
55134;SDS011;41031;44.750;11.308;2022-09-09T08:32:01;18.27;;;13.47;;
55134;SDS011;41031;44.750;11.308;2022-09-09T08:34:29;15.83;;;11.27;;
55134;SDS011;41031;44.750;11.308;2022-09-09T08:37:01;14.03;;;10.60;;
55134;SDS011;41031;44.750;11.308;2022-09-09T08:39:33;14.33;;;10.20;;
55134;SDS011;41031;44.750;11.308;2022-09-09T08:48:11;11.43;;;7.47;;
55134;SDS011;41031;44.750;11.308;2022-09-09T08:50:52;12.30;;;7.07;;
55134;SDS011;41031;44.750;11.308;2022-09-09T08:53:30;9.90;;;6.80;;
55134;SDS011;41031;44.750;11.308;2022-09-09T08:56:14;14.00;;;7.87;;
55134;SDS011;41031;44.750;11.308;2022-09-09T08:58:49;11.77;;;6.17;;
55134;SDS011;41031;44.750;11.308;2022-09-09T09:01:42;13.13;;;9.83;;
55134;SDS011;41031;44.750;11.308;2022-09-09T09:13:07;10.53;;;6.17;;
55134;SDS011;41031;44.750;11.308;2022-09-09T09:15:43;8.57;;;5.10;;
55134;SDS011;41031;44.750;11.308;2022-09-09T09:18:13;6.13;;;4.53;;
55134;SDS011;41031;44.750;11.308;2022-09-09T09:23:40;6.70;;;3.50;;
55134;SDS011;41031;44.750;11.308;2022-09-09T09:26:35;5.27;;;2.80;;
55134;SDS011;41031;44.750;11.308;2022-09-09T09:29:16;4.60;;;3.43;;
55134;SDS011;41031;44.750;11.308;2022-09-09T09:31:47;5.70;;;3.37;;
55134;SDS011;41031;44.750;11.308;2022-09-09T09:34:18;12.50;;;2.93;;
55134;SDS011;41031;44.750;11.308;2022-09-09T09:36:52;8.40;;;3.13;;
55134;SDS011;41031;44.750;11.308;2022-09-09T09:39:37;6.17;;;3.10;;
55134;SDS011;41031;44.750;11.308;2022-09-09T09:42:26;9.37;;;2.67;;
55134;SDS011;41031;44.750;11.308;2022-09-09T09:44:55;4.10;;;2.50;;
55134;SDS011;41031;44.750;11.308;2022-09-09T09:47:33;8.50;;;2.73;;
55134;SDS011;41031;44.750;11.308;2022-09-09T09:50:18;5.93;;;2.07;;
55134;SDS011;41031;44.750;11.308;2022-09-09T09:52:53;4.77;;;1.93;;
55134;SDS011;41031;44.750;11.308;2022-09-09T09:55:28;6.27;;;1.73;;
55134;SDS011;41031;44.750;11.308;2022-09-09T09:58:04;5.27;;;1.67;;
55134;SDS011;41031;44.750;11.308;2022-09-09T10:00:33;3.23;;;1.57;;
55134;SDS011;41031;44.750;11.308;2022-09-09T10:03:27;5.50;;;1.73;;
55134;SDS011;41031;44.750;11.308;2022-09-09T10:05:55;2.03;;;1.83;;
55134;SDS011;41031;44.750;11.308;2022-09-09T10:08:26;3.37;;;2.10;;
55134;SDS011;41031;44.750;11.308;2022-09-09T10:10:57;3.77;;;2.00;;
55134;SDS011;41031;44.750;11.308;2022-09-09T10:13:39;6.63;;;2.43;;
55134;SDS011;41031;44.750;11.308;2022-09-09T10:19:13;2.87;;;1.40;;
55134;SDS011;41031;44.750;11.308;2022-09-09T10:33:10;4.57;;;2.23;;
55134;SDS011;41031;44.750;11.308;2022-09-09T10:38:25;4.70;;;1.43;;
55134;SDS011;41031;44.750;11.308;2022-09-09T10:41:03;3.10;;;1.50;;
55134;SDS011;41031;44.750;11.308;2022-09-09T10:43:50;4.03;;;1.80;;
55134;SDS011;41031;44.750;11.308;2022-09-09T10:57:31;4.93;;;1.93;;
55134;SDS011;41031;44.750;11.308;2022-09-09T11:00:05;6.63;;;2.50;;
55134;SDS011;41031;44.750;11.308;2022-09-09T11:02:41;6.27;;;2.43;;
55134;SDS011;41031;44.750;11.308;2022-09-09T11:05:16;6.23;;;3.00;;
55134;SDS011;41031;44.750;11.308;2022-09-09T11:08:17;8.53;;;2.60;;
55134;SDS011;41031;44.750;11.308;2022-09-09T11:10:54;5.63;;;2.33;;
55134;SDS011;41031;44.750;11.308;2022-09-09T11:13:29;3.50;;;2.40;;
55134;SDS011;41031;44.750;11.308;2022-09-09T11:18:59;5.13;;;2.63;;
55134;SDS011;41031;44.750;11.308;2022-09-09T11:21:34;2.30;;;1.13;;
55134;SDS011;41031;44.750;11.308;2022-09-09T11:24:15;2.80;;;1.10;;
55134;SDS011;41031;44.750;11.308;2022-09-09T11:26:53;4.37;;;1.50;;
55134;SDS011;41031;44.750;11.308;2022-09-09T11:32:00;4.43;;;1.57;;
55134;SDS011;41031;44.750;11.308;2022-09-09T11:35:11;3.10;;;1.77;;
55134;SDS011;41031;44.750;11.308;2022-09-09T11:40:26;5.07;;;1.90;;
55134;SDS011;41031;44.750;11.308;2022-09-09T11:43:01;4.33;;;1.57;;
55134;SDS011;41031;44.750;11.308;2022-09-09T11:45:31;3.10;;;1.70;;
55134;SDS011;41031;44.750;11.308;2022-09-09T11:48:02;5.43;;;1.90;;
55134;SDS011;41031;44.750;11.308;2022-09-09T11:50:35;2.10;;;1.33;;
55134;SDS011;41031;44.750;11.308;2022-09-09T11:53:15;4.33;;;1.70;;
55134;SDS011;41031;44.750;11.308;2022-09-09T11:58:53;6.87;;;1.57;;
55134;SDS011;41031;44.750;11.308;2022-09-09T12:01:29;6.00;;;1.70;;
55134;SDS011;41031;44.750;11.308;2022-09-09T12:06:59;6.50;;;1.40;;
55134;SDS011;41031;44.750;11.308;2022-09-09T12:19:42;3.80;;;1.27;;
55134;SDS011;41031;44.750;11.308;2022-09-09T12:22:13;7.00;;;1.73;;
55134;SDS011;41031;44.750;11.308;2022-09-09T12:25:18;7.50;;;4.53;;
55134;SDS011;41031;44.750;11.308;2022-09-09T12:28:08;4.50;;;2.87;;
55134;SDS011;41031;44.750;11.308;2022-09-09T12:33:37;4.07;;;2.43;;
55134;SDS011;41031;44.750;11.308;2022-09-09T12:36:29;3.47;;;2.30;;
55134;SDS011;41031;44.750;11.308;2022-09-09T12:38:59;5.03;;;2.50;;
55134;SDS011;41031;44.750;11.308;2022-09-09T12:41:50;6.37;;;2.33;;
55134;SDS011;41031;44.750;11.308;2022-09-09T12:44:26;6.03;;;2.70;;
55134;SDS011;41031;44.750;11.308;2022-09-09T12:46:56;6.40;;;3.07;;
55134;SDS011;41031;44.750;11.308;2022-09-09T12:49:31;5.93;;;2.13;;
55134;SDS011;41031;44.750;11.308;2022-09-09T12:52:02;3.20;;;2.07;;
55134;SDS011;41031;44.750;11.308;2022-09-09T12:54:33;4.30;;;2.40;;
55134;SDS011;41031;44.750;11.308;2022-09-09T12:57:03;3.33;;;2.20;;
55134;SDS011;41031;44.750;11.308;2022-09-09T12:59:35;3.10;;;1.80;;
55134;SDS011;41031;44.750;11.308;2022-09-09T13:02:10;6.97;;;2.00;;
55134;SDS011;41031;44.750;11.308;2022-09-09T13:04:44;2.67;;;1.90;;
55134;SDS011;41031;44.750;11.308;2022-09-09T13:07:13;4.17;;;1.83;;
55134;SDS011;41031;44.750;11.308;2022-09-09T13:09:43;5.83;;;1.77;;
55134;SDS011;41031;44.750;11.308;2022-09-09T13:12:13;8.77;;;2.37;;
55134;SDS011;41031;44.750;11.308;2022-09-09T13:14:49;5.60;;;1.73;;
55134;SDS011;41031;44.750;11.308;2022-09-09T13:17:26;4.40;;;1.90;;
55134;SDS011;41031;44.750;11.308;2022-09-09T13:19:55;4.37;;;1.87;;
55134;SDS011;41031;44.750;11.308;2022-09-09T13:22:30;7.17;;;2.20;;
55134;SDS011;41031;44.750;11.308;2022-09-09T13:27:38;4.00;;;1.73;;
55134;SDS011;41031;44.750;11.308;2022-09-09T13:30:20;6.10;;;2.00;;
55134;SDS011;41031;44.750;11.308;2022-09-09T13:38:21;2.83;;;1.83;;
55134;SDS011;41031;44.750;11.308;2022-09-09T13:40:54;7.40;;;2.80;;
55134;SDS011;41031;44.750;11.308;2022-09-09T13:43:30;6.33;;;3.70;;
55134;SDS011;41031;44.750;11.308;2022-09-09T13:46:03;3.47;;;1.80;;
55134;SDS011;41031;44.750;11.308;2022-09-09T13:48:32;6.67;;;3.10;;
55134;SDS011;41031;44.750;11.308;2022-09-09T13:51:00;5.50;;;2.07;;
55134;SDS011;41031;44.750;11.308;2022-09-09T13:53:31;3.87;;;1.33;;
55134;SDS011;41031;44.750;11.308;2022-09-09T13:55:58;3.13;;;1.73;;
55134;SDS011;41031;44.750;11.308;2022-09-09T13:58:26;6.70;;;1.20;;
55134;SDS011;41031;44.750;11.308;2022-09-09T14:00:53;4.20;;;1.80;;
55134;SDS011;41031;44.750;11.308;2022-09-09T14:03:20;6.10;;;1.40;;
55134;SDS011;41031;44.750;11.308;2022-09-09T14:05:48;2.27;;;1.43;;
55134;SDS011;41031;44.750;11.308;2022-09-09T14:08:18;5.60;;;1.80;;
55134;SDS011;41031;44.750;11.308;2022-09-09T14:10:48;6.67;;;1.30;;
55134;SDS011;41031;44.750;11.308;2022-09-09T14:13:15;6.17;;;1.87;;
55134;SDS011;41031;44.750;11.308;2022-09-09T14:15:42;5.07;;;1.70;;
55134;SDS011;41031;44.750;11.308;2022-09-09T14:18:12;5.90;;;1.80;;
55134;SDS011;41031;44.750;11.308;2022-09-09T14:20:40;8.63;;;2.03;;
55134;SDS011;41031;44.750;11.308;2022-09-09T14:23:09;1.93;;;1.27;;
55134;SDS011;41031;44.750;11.308;2022-09-09T14:25:39;8.47;;;2.20;;
55134;SDS011;41031;44.750;11.308;2022-09-09T14:28:09;2.37;;;1.50;;
55134;SDS011;41031;44.750;11.308;2022-09-09T14:30:37;4.67;;;1.70;;
55134;SDS011;41031;44.750;11.308;2022-09-09T14:33:06;3.03;;;1.30;;
55134;SDS011;41031;44.750;11.308;2022-09-09T14:35:34;3.27;;;1.23;;
55134;SDS011;41031;44.750;11.308;2022-09-09T14:38:03;1.87;;;1.33;;
55134;SDS011;41031;44.750;11.308;2022-09-09T14:40:31;2.33;;;1.33;;
55134;SDS011;41031;44.750;11.308;2022-09-09T14:42:58;5.80;;;1.50;;
55134;SDS011;41031;44.750;11.308;2022-09-09T14:45:25;5.10;;;1.70;;
55134;SDS011;41031;44.750;11.308;2022-09-09T14:47:52;4.00;;;1.53;;
55134;SDS011;41031;44.750;11.308;2022-09-09T14:50:20;1.60;;;1.10;;
55134;SDS011;41031;44.750;11.308;2022-09-09T14:52:47;5.30;;;1.73;;
55134;SDS011;41031;44.750;11.308;2022-09-09T14:55:14;5.30;;;1.50;;
55134;SDS011;41031;44.750;11.308;2022-09-09T14:57:41;2.73;;;1.30;;
55134;SDS011;41031;44.750;11.308;2022-09-09T15:00:09;2.40;;;1.47;;
55134;SDS011;41031;44.750;11.308;2022-09-09T15:02:38;4.40;;;1.37;;
55134;SDS011;41031;44.750;11.308;2022-09-09T15:05:06;5.93;;;1.40;;
55134;SDS011;41031;44.750;11.308;2022-09-09T15:07:33;2.03;;;1.40;;
55134;SDS011;41031;44.750;11.308;2022-09-09T15:10:00;3.27;;;1.20;;
55134;SDS011;41031;44.750;11.308;2022-09-09T15:12:27;4.23;;;1.60;;
55134;SDS011;41031;44.750;11.308;2022-09-09T15:14:54;5.67;;;1.43;;
55134;SDS011;41031;44.750;11.308;2022-09-09T15:17:22;3.63;;;1.37;;
55134;SDS011;41031;44.750;11.308;2022-09-09T15:19:50;3.47;;;1.67;;
55134;SDS011;41031;44.750;11.308;2022-09-09T15:22:18;2.20;;;1.53;;
55134;SDS011;41031;44.750;11.308;2022-09-09T15:24:45;1.60;;;1.17;;
55134;SDS011;41031;44.750;11.308;2022-09-09T15:27:12;1.40;;;1.00;;
55134;SDS011;41031;44.750;11.308;2022-09-09T15:29:41;4.77;;;1.43;;
55134;SDS011;41031;44.750;11.308;2022-09-09T15:32:08;3.87;;;1.57;;
55134;SDS011;41031;44.750;11.308;2022-09-09T15:34:35;5.07;;;1.40;;
55134;SDS011;41031;44.750;11.308;2022-09-09T15:37:02;2.47;;;1.53;;
55134;SDS011;41031;44.750;11.308;2022-09-09T15:39:29;4.87;;;1.47;;
55134;SDS011;41031;44.750;11.308;2022-09-09T15:41:58;5.10;;;1.20;;
55134;SDS011;41031;44.750;11.308;2022-09-09T15:44:26;3.60;;;1.60;;
55134;SDS011;41031;44.750;11.308;2022-09-09T15:46:53;6.00;;;1.33;;
55134;SDS011;41031;44.750;11.308;2022-09-09T15:49:24;3.53;;;1.23;;
55134;SDS011;41031;44.750;11.308;2022-09-09T15:51:56;1.77;;;1.23;;
55134;SDS011;41031;44.750;11.308;2022-09-09T15:54:25;4.30;;;1.17;;
55134;SDS011;41031;44.750;11.308;2022-09-09T15:56:53;5.20;;;1.33;;
55134;SDS011;41031;44.750;11.308;2022-09-09T15:59:22;3.40;;;1.60;;
55134;SDS011;41031;44.750;11.308;2022-09-09T16:01:50;4.03;;;1.30;;
55134;SDS011;41031;44.750;11.308;2022-09-09T16:04:18;1.83;;;1.47;;
55134;SDS011;41031;44.750;11.308;2022-09-09T16:09:25;2.23;;;1.60;;
55134;SDS011;41031;44.750;11.308;2022-09-09T16:11:54;2.67;;;1.10;;
55134;SDS011;41031;44.750;11.308;2022-09-09T16:14:23;2.33;;;1.40;;
55134;SDS011;41031;44.750;11.308;2022-09-09T16:16:51;3.23;;;1.30;;
55134;SDS011;41031;44.750;11.308;2022-09-09T16:19:18;6.70;;;1.97;;
55134;SDS011;41031;44.750;11.308;2022-09-09T16:21:47;2.63;;;1.20;;
55134;SDS011;41031;44.750;11.308;2022-09-09T16:24:15;5.70;;;1.67;;
55134;SDS011;41031;44.750;11.308;2022-09-09T16:26:47;4.17;;;1.60;;
55134;SDS011;41031;44.750;11.308;2022-09-09T16:29:16;2.23;;;1.60;;
55134;SDS011;41031;44.750;11.308;2022-09-09T16:31:45;3.77;;;1.63;;
55134;SDS011;41031;44.750;11.308;2022-09-09T16:34:13;7.33;;;1.80;;
55134;SDS011;41031;44.750;11.308;2022-09-09T16:36:42;20.50;;;2.93;;
55134;SDS011;41031;44.750;11.308;2022-09-09T16:39:10;11.63;;;2.53;;
55134;SDS011;41031;44.750;11.308;2022-09-09T16:41:42;12.73;;;2.53;;
55134;SDS011;41031;44.750;11.308;2022-09-09T16:44:11;10.17;;;1.60;;
55134;SDS011;41031;44.750;11.308;2022-09-09T16:46:40;6.23;;;1.80;;
55134;SDS011;41031;44.750;11.308;2022-09-09T16:49:10;4.57;;;1.97;;
55134;SDS011;41031;44.750;11.308;2022-09-09T16:51:48;14.10;;;2.10;;
55134;SDS011;41031;44.750;11.308;2022-09-09T16:54:16;9.23;;;2.27;;
55134;SDS011;41031;44.750;11.308;2022-09-09T16:56:45;17.80;;;2.87;;
55134;SDS011;41031;44.750;11.308;2022-09-09T16:59:14;15.10;;;2.33;;
55134;SDS011;41031;44.750;11.308;2022-09-09T17:01:43;11.13;;;1.70;;
55134;SDS011;41031;44.750;11.308;2022-09-09T17:04:16;8.27;;;1.77;;
55134;SDS011;41031;44.750;11.308;2022-09-09T17:06:51;6.13;;;1.40;;
55134;SDS011;41031;44.750;11.308;2022-09-09T17:09:20;5.03;;;1.70;;
55134;SDS011;41031;44.750;11.308;2022-09-09T17:11:48;4.77;;;1.80;;
55134;SDS011;41031;44.750;11.308;2022-09-09T17:14:21;3.70;;;1.80;;